createdAt,value
2018-10-11T00:00:28.915Z,29.27
2018-10-11T00:02:56.971Z,29.47
2018-10-11T00:05:25.013Z,29.43
2018-10-11T00:07:53.070Z,30.57
2018-10-11T00:10:21.107Z,29.83
2018-10-11T00:12:49.152Z,29.03
2018-10-11T00:15:17.192Z,29.23
2018-10-11T00:17:45.226Z,30.90
2018-10-11T00:20:13.261Z,29.87
2018-10-11T00:22:41.304Z,29.77
2018-10-11T00:25:09.330Z,29.10
2018-10-11T00:27:37.386Z,30.37
2018-10-11T00:30:05.420Z,30.37
2018-10-11T00:32:33.488Z,30.20
2018-10-11T00:35:01.533Z,30.83
2018-10-11T00:37:29.568Z,30.47
2018-10-11T00:39:57.617Z,31.33
2018-10-11T00:42:25.674Z,30.80
2018-10-11T00:44:53.719Z,31.60
2018-10-11T00:47:21.747Z,30.90
2018-10-11T00:49:49.794Z,30.93
2018-10-11T00:52:17.845Z,32.30
2018-10-11T00:54:45.975Z,30.30
2018-10-11T00:57:14.000Z,30.77
2018-10-11T00:59:42.102Z,30.40
2018-10-11T01:02:10.133Z,30.10
2018-10-11T01:04:38.186Z,30.60
2018-10-11T01:07:06.216Z,29.90
2018-10-11T01:09:34.259Z,28.80
2018-10-11T01:12:02.286Z,28.10
2018-10-11T01:14:30.347Z,27.53
2018-10-11T01:16:58.395Z,28.70
2018-10-11T01:19:26.445Z,28.90
2018-10-11T01:21:54.487Z,27.83
2018-10-11T01:24:22.585Z,28.20
2018-10-11T01:26:50.607Z,28.17
2018-10-11T01:29:18.666Z,27.70
2018-10-11T01:31:46.710Z,29.40
2018-10-11T01:34:14.755Z,27.87
2018-10-11T01:36:42.781Z,28.77
2018-10-11T01:39:10.822Z,30.03
2018-10-11T01:41:38.881Z,28.57
2018-10-11T01:44:06.952Z,28.47
2018-10-11T01:46:35.073Z,27.27
2018-10-11T01:49:03.119Z,28.07
2018-10-11T01:51:31.155Z,27.03
2018-10-11T01:53:59.293Z,27.20
2018-10-11T01:56:27.629Z,28.60
2018-10-11T01:58:55.684Z,27.60
2018-10-11T02:01:23.804Z,27.83
2018-10-11T02:03:51.859Z,27.27
2018-10-11T02:06:19.903Z,27.37
2018-10-11T02:08:47.938Z,28.53
2018-10-11T02:11:15.991Z,27.73
2018-10-11T02:13:44.011Z,27.67
2018-10-11T02:16:12.027Z,28.10
2018-10-11T02:18:40.184Z,27.17
2018-10-11T02:21:08.400Z,29.13
2018-10-11T02:23:36.575Z,26.83
2018-10-11T02:26:04.612Z,28.23
2018-10-11T02:28:32.677Z,28.20
2018-10-11T02:31:00.793Z,28.27
2018-10-11T02:33:28.867Z,27.50
2018-10-11T02:35:57.324Z,26.93
2018-10-11T02:38:25.395Z,27.63
2018-10-11T02:40:53.450Z,27.37
2018-10-11T02:43:21.496Z,28.53
2018-10-11T02:45:49.546Z,28.33
2018-10-11T02:48:17.593Z,27.30
2018-10-11T02:50:45.629Z,28.80
2018-10-11T02:53:20.377Z,28.00
2018-10-11T02:55:48.465Z,28.70
2018-10-11T02:58:28.091Z,28.20
2018-10-11T03:00:56.141Z,28.17
2018-10-11T03:03:26.193Z,28.00
2018-10-11T03:05:54.433Z,27.20
2018-10-11T03:08:22.733Z,28.67
2018-10-11T03:10:50.944Z,28.37
2018-10-11T03:13:18.992Z,27.43
2018-10-11T03:15:47.050Z,28.87
2018-10-11T03:18:15.356Z,27.97
2018-10-11T03:20:44.437Z,28.27
2018-10-11T03:23:13.139Z,28.40
2018-10-11T03:25:42.231Z,28.67
2018-10-11T03:28:11.020Z,28.50
2018-10-11T03:30:39.298Z,27.63
2018-10-11T03:33:07.374Z,27.53
2018-10-11T03:35:35.409Z,28.30
2018-10-11T03:38:03.454Z,27.40
2018-10-11T03:40:31.500Z,29.00
2018-10-11T03:42:59.554Z,29.23
2018-10-11T03:45:27.580Z,28.87
2018-10-11T03:47:55.659Z,27.83
2018-10-11T03:50:23.974Z,28.43
2018-10-11T03:52:52.012Z,29.30
2018-10-11T03:55:20.084Z,36.00
2018-10-11T03:57:48.234Z,33.73
2018-10-11T04:00:16.281Z,35.57
2018-10-11T04:02:44.355Z,32.03
2018-10-11T04:05:12.433Z,29.70
2018-10-11T04:07:40.572Z,28.97
2018-10-11T04:10:08.588Z,29.77
2018-10-11T04:12:36.633Z,29.40
2018-10-11T04:15:04.701Z,29.10
2018-10-11T04:17:32.764Z,28.93
2018-10-11T04:20:00.850Z,30.20
2018-10-11T04:22:28.919Z,30.27
2018-10-11T04:24:56.968Z,29.73
2018-10-11T04:27:25.038Z,30.17
2018-10-11T04:29:53.068Z,32.13
2018-10-11T04:32:21.178Z,37.47
2018-10-11T04:34:49.198Z,33.53
2018-10-11T04:37:17.242Z,29.83
2018-10-11T04:39:45.303Z,31.20
2018-10-11T04:42:13.325Z,30.80
2018-10-11T04:44:41.368Z,31.80
2018-10-11T04:47:09.469Z,31.43
2018-10-11T04:49:37.528Z,31.93
2018-10-11T04:52:05.577Z,32.23
2018-10-11T04:54:33.745Z,32.70
2018-10-11T04:57:01.792Z,33.13
2018-10-11T04:59:29.827Z,32.60
2018-10-11T05:01:57.897Z,32.23
2018-10-11T05:04:25.963Z,31.87
2018-10-11T05:06:54.209Z,33.00
2018-10-11T05:09:22.260Z,32.27
2018-10-11T05:11:50.311Z,32.70
2018-10-11T05:14:18.364Z,32.53
2018-10-11T05:16:46.525Z,32.87
2018-10-11T05:19:14.578Z,32.63
2018-10-11T05:21:42.648Z,31.77
2018-10-11T05:24:10.723Z,33.50
2018-10-11T05:26:38.756Z,32.90
2018-10-11T05:29:06.801Z,33.87
2018-10-11T05:31:34.860Z,33.40
2018-10-11T05:34:03.033Z,33.43
2018-10-11T05:36:31.077Z,37.90
2018-10-11T05:38:59.134Z,34.07
2018-10-11T05:41:27.166Z,34.90
2018-10-11T05:43:55.208Z,33.77
2018-10-11T05:46:27.989Z,34.00
2018-10-11T05:48:56.452Z,35.33
2018-10-11T05:51:24.920Z,34.63
2018-10-11T05:53:53.572Z,33.70
2018-10-11T05:56:22.544Z,35.00
2018-10-11T05:58:51.000Z,34.87
2018-10-11T06:01:19.116Z,34.93
2018-10-11T06:03:47.255Z,34.63
2018-10-11T06:06:15.411Z,34.73
2018-10-11T06:08:43.701Z,36.27
2018-10-11T06:11:11.879Z,35.93
2018-10-11T06:13:39.921Z,35.80
2018-10-11T06:16:07.999Z,37.03
2018-10-11T06:18:36.055Z,36.53
2018-10-11T06:21:04.261Z,35.00
2018-10-11T06:23:32.344Z,35.83
2018-10-11T06:26:00.385Z,35.70
2018-10-11T06:28:28.424Z,35.73
2018-10-11T06:30:56.751Z,36.13
2018-10-11T06:33:25.808Z,35.20
2018-10-11T06:35:55.683Z,34.50
2018-10-11T06:38:23.764Z,34.87
2018-10-11T06:40:51.982Z,35.43
2018-10-11T06:43:20.400Z,37.33
2018-10-11T06:45:48.477Z,35.03
2018-10-11T06:48:16.532Z,34.63
2018-10-11T06:50:45.621Z,33.70
2018-10-11T06:53:13.692Z,32.77
2018-10-11T06:55:41.826Z,34.07
2018-10-11T06:58:09.967Z,31.87
2018-10-11T07:00:38.006Z,32.90
2018-10-11T07:03:06.258Z,32.77
2018-10-11T07:05:34.307Z,34.00
2018-10-11T07:08:02.679Z,38.00
2018-10-11T07:10:30.793Z,32.47
2018-10-11T07:12:58.859Z,30.67
2018-10-11T07:15:27.192Z,30.03
2018-10-11T07:17:55.228Z,29.03
2018-10-11T07:20:23.385Z,28.17
2018-10-11T07:22:51.464Z,28.73
2018-10-11T07:25:19.556Z,27.97
2018-10-11T07:27:48.505Z,27.27
2018-10-11T07:30:16.605Z,25.20
2018-10-11T07:32:44.828Z,23.80
2018-10-11T07:35:13.074Z,23.70
2018-10-11T07:37:41.100Z,23.67
2018-10-11T07:40:09.336Z,23.50
2018-10-11T07:42:37.908Z,23.10
2018-10-11T07:45:07.077Z,22.57
2018-10-11T07:47:35.605Z,22.70
2018-10-11T07:50:03.778Z,22.80
2018-10-11T07:52:32.860Z,21.83
2018-10-11T07:55:01.617Z,21.73
2018-10-11T07:57:29.681Z,20.93
2018-10-11T07:59:57.804Z,21.50
2018-10-11T08:02:25.829Z,22.60
2018-10-11T08:04:53.948Z,21.67
2018-10-11T08:07:23.108Z,21.10
2018-10-11T08:09:51.123Z,20.60
2018-10-11T08:12:19.156Z,22.53
2018-10-11T08:14:50.949Z,21.27
2018-10-11T08:17:19.400Z,19.97
2018-10-11T08:19:47.229Z,21.20
2018-10-11T08:22:18.539Z,21.13
2018-10-11T08:24:46.747Z,20.47
2018-10-11T08:27:14.782Z,20.77
2018-10-11T08:29:43.872Z,20.23
2018-10-11T08:32:12.170Z,21.17
2018-10-11T08:34:40.170Z,20.03
2018-10-11T08:37:08.228Z,20.33
2018-10-11T08:39:37.198Z,18.97
2018-10-11T08:42:07.352Z,19.10
2018-10-11T08:44:36.328Z,19.70
2018-10-11T08:47:04.402Z,20.33
2018-10-11T08:49:32.676Z,19.77
2018-10-11T08:52:01.064Z,18.40
2018-10-11T08:54:34.703Z,18.93
2018-10-11T08:57:02.775Z,17.90
2018-10-11T08:59:31.764Z,17.90
2018-10-11T09:01:59.826Z,18.30
2018-10-11T09:04:31.804Z,18.70
2018-10-11T09:07:00.234Z,17.43
2018-10-11T09:09:28.537Z,17.23
2018-10-11T09:11:56.749Z,16.60
2018-10-11T09:14:24.975Z,17.07
2018-10-11T09:16:53.219Z,16.63
2018-10-11T09:19:21.578Z,16.20
2018-10-11T09:21:49.632Z,15.97
2018-10-11T09:24:17.688Z,15.70
2018-10-11T09:26:45.735Z,15.93
2018-10-11T09:29:14.403Z,14.90
2018-10-11T09:31:42.556Z,14.83
2018-10-11T09:34:10.690Z,14.57
2018-10-11T09:36:39.256Z,14.93
2018-10-11T09:39:08.848Z,14.33
2018-10-11T09:41:37.359Z,13.93
2018-10-11T09:44:05.645Z,14.10
2018-10-11T09:46:33.769Z,13.93
2018-10-11T09:49:01.904Z,14.53
2018-10-11T09:51:29.964Z,15.03
2018-10-11T09:53:58.059Z,14.17
2018-10-11T09:56:36.257Z,15.30
2018-10-11T09:59:05.732Z,14.43
2018-10-11T10:01:39.551Z,14.47
2018-10-11T10:04:07.681Z,14.20
2018-10-11T10:06:35.744Z,14.37
2018-10-11T10:09:05.409Z,13.43
2018-10-11T10:11:33.525Z,14.57
2018-10-11T10:14:01.746Z,14.07
2018-10-11T10:16:29.824Z,13.87
2018-10-11T10:18:57.961Z,13.20
2018-10-11T10:21:26.107Z,13.80
2018-10-11T10:23:54.089Z,13.70
2018-10-11T10:26:22.145Z,13.00
2018-10-11T10:28:50.191Z,13.87
2018-10-11T10:31:18.247Z,12.87
2018-10-11T10:33:46.296Z,13.23
2018-10-11T10:36:14.406Z,13.23
2018-10-11T10:38:42.457Z,13.30
2018-10-11T10:41:10.487Z,13.47
2018-10-11T10:43:38.537Z,13.57
2018-10-11T10:46:06.615Z,13.13
2018-10-11T10:48:34.666Z,13.70
2018-10-11T10:51:02.734Z,13.33
2018-10-11T10:53:30.780Z,12.70
2018-10-11T10:55:58.804Z,13.00
2018-10-11T10:58:26.841Z,13.22
2018-10-11T11:00:54.886Z,13.25
2018-10-11T11:03:22.916Z,13.10
2018-10-11T11:05:50.974Z,12.60
2018-10-11T11:08:19.077Z,12.67
2018-10-11T11:10:47.145Z,12.17
2018-10-11T11:13:15.256Z,12.43
2018-10-11T11:15:43.277Z,12.30
2018-10-11T11:18:11.352Z,12.00
2018-10-11T11:20:39.391Z,11.93
2018-10-11T11:23:07.477Z,13.23
2018-10-11T11:25:35.640Z,11.87
2018-10-11T11:28:03.796Z,11.60
2018-10-11T11:30:31.855Z,11.60
2018-10-11T11:33:00.097Z,11.60
2018-10-11T11:35:28.289Z,12.17
2018-10-11T11:37:56.359Z,11.27
2018-10-11T11:40:24.419Z,11.03
2018-10-11T11:42:52.494Z,11.20
2018-10-11T11:45:20.604Z,11.70
2018-10-11T11:47:48.662Z,11.40
2018-10-11T11:50:16.684Z,10.53
2018-10-11T11:52:44.809Z,11.40
2018-10-11T11:55:13.894Z,11.30
2018-10-11T11:57:41.924Z,10.70
2018-10-11T12:00:10.041Z,11.03
2018-10-11T12:02:38.117Z,10.43
2018-10-11T12:05:06.191Z,10.27
2018-10-11T12:07:34.232Z,10.70
2018-10-11T12:10:02.281Z,10.53
2018-10-11T12:13:06.197Z,11.27
2018-10-11T12:15:34.796Z,11.30
2018-10-11T12:18:03.689Z,10.70
2018-10-11T12:20:32.917Z,10.27
2018-10-11T12:23:02.191Z,10.40
2018-10-11T12:25:30.591Z,10.83
2018-10-11T12:27:58.659Z,11.00
2018-10-11T12:30:26.737Z,10.40
2018-10-11T12:32:54.795Z,10.30
2018-10-11T12:35:23.602Z,11.00
2018-10-11T12:37:51.749Z,10.93
2018-10-11T12:40:20.065Z,11.20
2018-10-11T12:42:48.115Z,11.30
2018-10-11T12:45:16.855Z,10.77
2018-10-11T12:47:44.842Z,10.90
2018-10-11T12:50:13.321Z,9.97
2018-10-11T12:52:41.612Z,10.90
2018-10-11T12:55:09.882Z,10.80
2018-10-11T12:57:38.259Z,11.13
2018-10-11T13:00:07.796Z,11.13
2018-10-11T13:02:35.914Z,11.90
2018-10-11T13:05:03.981Z,13.17
2018-10-11T13:07:32.081Z,11.90
2018-10-11T13:10:00.312Z,10.57
2018-10-11T13:12:28.351Z,10.80
2018-10-11T13:14:56.424Z,10.77
2018-10-11T13:17:24.469Z,10.50
2018-10-11T13:22:22.096Z,10.23
2018-10-11T13:24:50.328Z,10.23
2018-10-11T13:27:18.389Z,10.10
2018-10-11T13:29:46.712Z,10.47
2018-10-11T13:32:14.739Z,10.00
2018-10-11T13:34:42.851Z,10.53
2018-10-11T13:37:10.891Z,10.77
2018-10-11T13:39:38.951Z,10.37
2018-10-11T13:42:07.045Z,10.40
2018-10-11T13:44:35.088Z,9.30
2018-10-11T13:47:03.136Z,10.23
2018-10-11T13:49:31.201Z,10.27
2018-10-11T13:51:59.273Z,9.80
2018-10-11T13:54:27.320Z,9.93
2018-10-11T13:56:58.796Z,10.40
2018-10-11T13:59:23.439Z,10.73
2018-10-11T14:01:51.484Z,10.30
2018-10-11T14:04:19.554Z,9.50
2018-10-11T14:06:47.605Z,9.87
2018-10-11T14:09:15.945Z,9.33
2018-10-11T14:11:44.008Z,9.10
2018-10-11T14:14:12.122Z,9.10
2018-10-11T14:16:40.193Z,9.30
2018-10-11T14:19:08.232Z,9.20
2018-10-11T14:21:36.305Z,9.33
2018-10-11T14:24:04.486Z,8.63
2018-10-11T14:26:32.478Z,9.30
2018-10-11T14:29:00.569Z,8.23
2018-10-11T14:31:28.608Z,8.60
2018-10-11T14:33:56.631Z,8.20
2018-10-11T14:36:24.739Z,8.37
2018-10-11T14:38:53.035Z,8.73
2018-10-11T14:41:21.118Z,8.60
2018-10-11T14:43:49.228Z,8.80
2018-10-11T14:46:17.297Z,8.53
2018-10-11T14:48:45.915Z,7.90
2018-10-11T14:51:14.015Z,9.47
2018-10-11T14:53:42.120Z,10.50
2018-10-11T14:56:10.166Z,9.10
2018-10-11T14:58:38.272Z,8.67
2018-10-11T15:01:06.415Z,8.87
2018-10-11T15:03:34.413Z,8.70
2018-10-11T15:06:02.478Z,8.40
2018-10-11T15:08:30.519Z,8.40
2018-10-11T15:10:58.596Z,8.47
2018-10-11T15:13:26.608Z,9.90
2018-10-11T15:15:54.716Z,8.70
2018-10-11T15:18:22.716Z,9.10
2018-10-11T15:20:50.808Z,8.60
2018-10-11T15:23:18.845Z,9.37
2018-10-11T15:25:46.929Z,9.83
2018-10-11T15:28:14.958Z,9.40
2018-10-11T15:30:43.012Z,10.10
2018-10-11T15:33:11.055Z,9.07
2018-10-11T15:35:39.119Z,9.43
2018-10-11T15:38:07.157Z,9.30
2018-10-11T15:40:35.213Z,9.40
2018-10-11T15:43:03.283Z,9.30
2018-10-11T15:45:31.333Z,9.50
2018-10-11T15:47:59.559Z,11.20
2018-10-11T15:50:27.790Z,10.63
2018-10-11T15:52:55.924Z,10.20
2018-10-11T15:55:23.980Z,9.67
2018-10-11T15:57:52.039Z,9.90
2018-10-11T16:00:20.073Z,10.67
2018-10-11T16:02:48.128Z,9.90
2018-10-11T16:05:16.253Z,13.30
2018-10-11T16:07:44.307Z,11.30
2018-10-11T16:10:12.346Z,10.63
2018-10-11T16:12:40.384Z,10.57
2018-10-11T16:15:08.424Z,10.70
2018-10-11T16:17:36.513Z,10.13
2018-10-11T16:20:04.714Z,10.43
2018-10-11T16:22:32.851Z,10.33
2018-10-11T16:25:00.940Z,10.63
2018-10-11T16:27:28.994Z,10.40
2018-10-11T16:29:57.036Z,10.10
2018-10-11T16:32:25.095Z,10.33
2018-10-11T16:34:53.123Z,11.27
2018-10-11T16:37:21.144Z,11.10
2018-10-11T16:39:49.932Z,12.17
2018-10-11T16:42:18.008Z,12.43
2018-10-11T16:44:46.060Z,15.90
2018-10-11T16:47:14.152Z,14.00
2018-10-11T16:49:42.283Z,12.93
2018-10-11T16:52:10.386Z,12.10
2018-10-11T16:54:42.071Z,13.07
2018-10-11T16:57:11.425Z,11.57
2018-10-11T16:59:39.453Z,12.40
2018-10-11T17:02:07.569Z,11.70
2018-10-11T17:04:35.766Z,12.30
2018-10-11T17:07:04.030Z,12.20
2018-10-11T17:09:32.090Z,12.40
2018-10-11T17:12:00.136Z,12.30
2018-10-11T17:14:28.211Z,12.83
2018-10-11T17:16:56.331Z,12.70
2018-10-11T17:19:24.384Z,12.43
2018-10-11T17:21:52.486Z,12.50
2018-10-11T17:24:20.572Z,12.70
2018-10-11T17:26:48.639Z,12.70
2018-10-11T17:29:16.876Z,13.37
2018-10-11T17:31:44.952Z,13.30
2018-10-11T17:34:13.021Z,13.90
2018-10-11T17:36:41.091Z,13.60
2018-10-11T17:39:10.676Z,13.43
2018-10-11T17:41:39.252Z,13.70
2018-10-11T17:44:07.629Z,13.97
2018-10-11T17:46:35.736Z,14.47
2018-10-11T17:49:12.468Z,14.10
2018-10-11T17:51:40.788Z,14.33
2018-10-11T17:54:08.840Z,13.90
2018-10-11T17:56:37.032Z,14.60
2018-10-11T17:59:05.094Z,14.23
2018-10-11T18:01:33.123Z,13.40
2018-10-11T18:04:01.228Z,14.33
2018-10-11T18:06:29.264Z,14.37
2018-10-11T18:08:57.292Z,14.30
2018-10-11T18:11:25.401Z,13.97
2018-10-11T18:13:53.922Z,14.93
2018-10-11T18:16:21.997Z,14.43
2018-10-11T18:18:50.037Z,13.37
2018-10-11T18:21:18.062Z,14.53
2018-10-11T18:23:46.107Z,14.33
2018-10-11T18:26:14.180Z,14.00
2018-10-11T18:28:42.361Z,13.60
2018-10-11T18:31:10.415Z,14.07
2018-10-11T18:33:38.453Z,14.87
2018-10-11T18:36:06.596Z,16.47
2018-10-11T18:38:34.681Z,19.67
2018-10-11T18:41:02.753Z,14.83
2018-10-11T18:43:30.848Z,13.10
2018-10-11T18:46:00.059Z,13.43
2018-10-11T18:48:28.123Z,12.60
2018-10-11T18:50:56.337Z,12.80
2018-10-11T18:53:24.293Z,12.70
2018-10-11T18:55:52.391Z,13.23
2018-10-11T18:58:20.461Z,12.60
2018-10-11T19:00:48.501Z,13.13
2018-10-11T19:03:16.529Z,13.53
2018-10-11T19:05:45.701Z,13.07
2018-10-11T19:08:13.742Z,12.90
2018-10-11T19:10:41.861Z,12.53
2018-10-11T19:13:09.886Z,13.00
2018-10-11T19:15:37.947Z,12.87
2018-10-11T19:18:05.967Z,13.13
2018-10-11T19:20:34.025Z,13.17
2018-10-11T19:23:02.064Z,13.10
2018-10-11T19:25:30.126Z,13.17
2018-10-11T19:27:58.167Z,13.30
2018-10-11T19:30:26.360Z,13.57
2018-10-11T19:32:54.441Z,16.40
2018-10-11T19:35:22.535Z,24.63
2018-10-11T19:37:50.580Z,15.00
2018-10-11T19:40:18.684Z,13.37
2018-10-11T19:42:46.743Z,13.87
2018-10-11T19:45:14.771Z,13.77
2018-10-11T19:47:42.819Z,12.47
2018-10-11T19:50:10.861Z,13.23
2018-10-11T19:52:38.898Z,13.83
2018-10-11T19:55:06.976Z,13.60
2018-10-11T19:57:35.023Z,13.03
2018-10-11T20:00:03.085Z,13.43
2018-10-11T20:02:31.119Z,13.77
2018-10-11T20:04:59.154Z,13.17
2018-10-11T20:07:27.203Z,13.37
2018-10-11T20:09:55.239Z,14.23
2018-10-11T20:12:23.281Z,13.27
2018-10-11T20:14:51.312Z,13.93
2018-10-11T20:17:19.418Z,13.17
2018-10-11T20:19:47.441Z,13.87
2018-10-11T20:22:15.612Z,13.80
2018-10-11T20:24:43.705Z,12.90
2018-10-11T20:27:11.738Z,13.83
2018-10-11T20:29:40.018Z,13.87
2018-10-11T20:32:08.937Z,13.87
2018-10-11T20:34:38.550Z,14.10
2018-10-11T20:37:06.672Z,13.83
2018-10-11T20:39:34.897Z,14.30
2018-10-11T20:42:03.028Z,14.00
2018-10-11T20:44:31.735Z,20.50
2018-10-11T20:46:59.808Z,21.03
2018-10-11T20:49:27.840Z,17.43
2018-10-11T20:51:57.792Z,15.37
2018-10-11T20:54:27.043Z,21.87
2018-10-11T20:56:55.096Z,23.23
2018-10-11T20:59:23.449Z,16.67
2018-10-11T21:01:51.640Z,14.93
2018-10-11T21:04:20.693Z,13.50
2018-10-11T21:06:48.772Z,14.33
2018-10-11T21:09:16.828Z,14.70
2018-10-11T21:11:44.967Z,14.20
2018-10-11T21:14:13.016Z,14.83
2018-10-11T21:16:41.070Z,14.90
2018-10-11T21:19:09.741Z,14.93
2018-10-11T21:21:37.807Z,15.10
2018-10-11T21:24:05.878Z,14.80
2018-10-11T21:26:33.998Z,15.17
2018-10-11T21:29:02.025Z,14.97
2018-10-11T21:31:30.106Z,14.20
2018-10-11T21:33:58.137Z,14.53
2018-10-11T21:36:26.228Z,14.53
2018-10-11T21:38:54.292Z,14.77
2018-10-11T21:41:22.345Z,15.23
2018-10-11T21:43:50.413Z,15.43
2018-10-11T21:46:18.631Z,15.20
2018-10-11T21:48:46.756Z,15.37
2018-10-11T21:51:14.789Z,15.33
2018-10-11T21:53:42.950Z,16.10
2018-10-11T21:56:11.157Z,15.37
2018-10-11T21:58:39.209Z,15.13
2018-10-11T22:01:12.950Z,15.97
2018-10-11T22:03:41.052Z,16.00
2018-10-11T22:06:09.163Z,15.87
2018-10-11T22:08:37.418Z,15.90
2018-10-11T22:11:05.521Z,15.23
2018-10-11T22:13:33.744Z,15.47
2018-10-11T22:16:01.916Z,15.80
2018-10-11T22:18:31.115Z,15.57
2018-10-11T22:20:59.279Z,15.23
2018-10-11T22:23:27.335Z,15.20
2018-10-11T22:25:55.516Z,15.33
2018-10-11T22:28:23.588Z,16.07
2018-10-11T22:30:51.718Z,16.33
2018-10-11T22:33:19.780Z,15.83
2018-10-11T22:35:47.955Z,16.17
2018-10-11T22:38:16.095Z,15.97
2018-10-11T22:40:44.473Z,16.80
2018-10-11T22:43:12.512Z,16.27
2018-10-11T22:45:40.670Z,15.67
2018-10-11T22:48:08.836Z,16.03
2018-10-11T22:50:36.893Z,16.73
2018-10-11T22:53:04.925Z,15.80
2018-10-11T22:55:33.048Z,15.53
2018-10-11T22:58:01.952Z,16.03
2018-10-11T23:00:30.012Z,16.20
2018-10-11T23:02:58.047Z,16.20
2018-10-11T23:05:26.122Z,15.63
2018-10-11T23:07:54.175Z,16.53
2018-10-11T23:10:22.632Z,17.33
2018-10-11T23:12:50.684Z,16.60
2018-10-11T23:15:18.731Z,17.00
2018-10-11T23:17:46.765Z,16.70
2018-10-11T23:20:14.821Z,16.00
2018-10-11T23:25:17.227Z,17.27
2018-10-11T23:27:45.265Z,16.70
2018-10-11T23:30:13.315Z,16.83
2018-10-11T23:32:42.238Z,17.67
2018-10-11T23:35:11.459Z,17.53
2018-10-11T23:37:40.833Z,17.90
2018-10-11T23:40:09.837Z,17.40
2018-10-11T23:42:38.024Z,16.80
2018-10-11T23:45:06.828Z,18.20
2018-10-11T23:47:34.861Z,17.83
2018-10-11T23:50:02.931Z,17.37
2018-10-11T23:52:30.984Z,17.77
2018-10-11T23:54:59.042Z,18.37
2018-10-11T23:57:27.157Z,17.10
2018-10-11T23:59:55.217Z,17.27
